Etusivu
METAR-TAF:

METAR-TAF

Lentoasemat :

Franklin County, Vermont, Yhdysvallat

Leveyspiiri: 44-56-25N, Pituuspiiri: 073-05-51W, korkeus merenpinnasta: 69 m

Tämänhetkinen sää

Tämä raportti tehtiin 7 minuuttia sitten, kello 14.35 UTC
Tuuli 7 kn luoteesta
Lämpötila -9°C
Kosteus 57%
Ilmanpaine 1025 hPa
Näkyvyys: 16.1 km

METAR: KFSO 131435Z AUTO 31007KT 10SM M09/M16 A3028 RMK AO2 T10931161

Aika: 09:42 (14:42 UTC)


TAF: puuttuu

Säähavainnot ja -ennusteet yli 4000 lentoasemalta (METAR- ja TAF-raportit).

Käytössä olevat sääasemat on merkitty karttaan keltaisilla ja punaisilla pisteillä.

Aseta hiiri pisteen päälle nähdäksesi sääaseman nimen.

Klikkaa sitten nähdäksesi säähavainnot ja -ennusteet.

Kartan vaihtaminen: klikkaa mustalla rastilla varustettuja vihreitä pisteitä, niin voit zoomata sisään; viivalla varustettua vihreää pistettä, niin voit zoomata ulos tai vihreitä nuolia, niin pääset viereisille kartoille.


METAR-TAF: